Demopolis, Alabama
Current Conditions -  °F | °C
As of 10:15 AM on Thursday 30 Oct 2014 (Local Time) from KDYA Reporting Station
Clear Clear  
Wind Chill: 60°   Ceiling: Unl
Heat Index: 60°   Visibility: 10mi
Dew Point: 44°   Wind: 0mph
Humidity: 54%   Direction: NA
Pressure: 30.15"   Gusts: NA
Location:  32.5°N, 87.84°W
Report Text: KDYA 301515Z AUTO 00000KT 10SM CLR 16/07 A3015 RMK AO2 T01580066
Loading
Personal Weather Stations






























Interactive Weather Map New forecast layout! Learn more

10-Day Weather Forecast

Advertisements
Track Severe Weather on mobile